createdAt,value
2023-08-29T00:01:38.005Z,100.00
2023-08-29T00:04:04.958Z,100.00
2023-08-29T00:06:31.653Z,100.00
2023-08-29T00:08:58.293Z,100.00
2023-08-29T00:11:24.955Z,100.00
2023-08-29T00:13:53.686Z,100.00
2023-08-29T00:16:20.502Z,100.00
2023-08-29T00:18:47.179Z,100.00
2023-08-29T00:21:13.770Z,100.00
2023-08-29T00:23:40.391Z,100.00
2023-08-29T00:26:07.111Z,100.00
2023-08-29T00:28:33.712Z,100.00
2023-08-29T00:31:00.420Z,100.00
2023-08-29T00:33:27.066Z,100.00
2023-08-29T00:35:53.668Z,100.00
2023-08-29T00:38:20.410Z,100.00
2023-08-29T00:40:47.039Z,100.00
2023-08-29T00:43:14.914Z,100.00
2023-08-29T00:45:41.848Z,100.00
2023-08-29T00:48:09.832Z,100.00
2023-08-29T00:50:37.194Z,100.00
2023-08-29T00:53:07.038Z,100.00
2023-08-29T00:55:35.959Z,100.00
2023-08-29T00:58:03.793Z,100.00
2023-08-29T01:00:32.284Z,100.00
2023-08-29T01:03:01.105Z,100.00
2023-08-29T01:05:29.713Z,100.00
2023-08-29T01:08:01.057Z,100.00
2023-08-29T01:10:46.926Z,100.00
2023-08-29T01:13:40.656Z,100.00
2023-08-29T01:16:11.355Z,100.00
2023-08-29T01:18:39.232Z,100.00
2023-08-29T01:21:30.466Z,100.00
2023-08-29T01:24:16.776Z,100.00
2023-08-29T01:26:45.288Z,100.00
2023-08-29T01:29:12.301Z,100.00
2023-08-29T01:31:39.215Z,100.00
2023-08-29T01:34:06.361Z,100.00
2023-08-29T01:36:42.592Z,100.00
2023-08-29T01:39:09.278Z,100.00
2023-08-29T01:41:36.062Z,100.00
2023-08-29T01:44:03.903Z,100.00
2023-08-29T01:46:31.169Z,100.00
2023-08-29T01:49:00.081Z,100.00
2023-08-29T01:51:26.651Z,100.00
2023-08-29T01:53:53.781Z,100.00
2023-08-29T01:56:24.064Z,100.00
2023-08-29T01:58:53.432Z,100.00
2023-08-29T02:01:23.558Z,100.00
2023-08-29T02:03:51.024Z,100.00
2023-08-29T02:06:19.154Z,100.00
2023-08-29T02:08:45.971Z,100.00
2023-08-29T02:11:12.720Z,100.00
2023-08-29T02:13:39.404Z,100.00
2023-08-29T02:16:05.995Z,100.00
2023-08-29T02:18:32.652Z,100.00
2023-08-29T02:20:59.214Z,100.00
2023-08-29T02:23:27.562Z,100.00
2023-08-29T02:26:07.023Z,100.00
2023-08-29T02:28:37.930Z,100.00
2023-08-29T02:31:14.638Z,100.00
2023-08-29T02:33:41.512Z,100.00
2023-08-29T02:36:08.287Z,100.00
2023-08-29T02:38:35.680Z,100.00
2023-08-29T02:41:02.643Z,100.00
2023-08-29T02:43:29.509Z,100.00
2023-08-29T02:45:56.395Z,100.00
2023-08-29T02:48:23.293Z,100.00
2023-08-29T02:50:50.174Z,100.00
2023-08-29T02:53:21.892Z,100.00
2023-08-29T02:55:53.197Z,100.00
2023-08-29T02:58:20.607Z,100.00
2023-08-29T03:00:48.888Z,100.00
2023-08-29T03:03:17.059Z,100.00
2023-08-29T03:05:43.929Z,100.00
2023-08-29T03:08:11.639Z,100.00
2023-08-29T03:10:39.412Z,100.00
2023-08-29T03:13:06.576Z,100.00
2023-08-29T03:15:34.227Z,100.00
2023-08-29T03:18:02.322Z,100.00
2023-08-29T03:20:30.082Z,100.00
2023-08-29T03:22:56.678Z,100.00
2023-08-29T03:25:23.567Z,100.00
2023-08-29T03:27:50.813Z,100.00
2023-08-29T03:30:17.827Z,100.00
2023-08-29T03:32:44.803Z,100.00
2023-08-29T03:35:15.256Z,100.00
2023-08-29T03:37:42.861Z,100.00
2023-08-29T03:40:13.844Z,100.00
2023-08-29T03:42:40.932Z,100.00
2023-08-29T03:45:09.269Z,100.00
2023-08-29T03:47:38.677Z,100.00
2023-08-29T03:50:06.662Z,100.00
2023-08-29T03:52:33.679Z,100.00
2023-08-29T03:55:00.561Z,100.00
2023-08-29T03:57:27.876Z,100.00
2023-08-29T03:59:54.619Z,100.00
2023-08-29T04:02:21.285Z,100.00
2023-08-29T04:04:52.727Z,100.00
2023-08-29T04:07:20.409Z,100.00
2023-08-29T04:09:47.212Z,100.00
2023-08-29T04:12:13.841Z,100.00
2023-08-29T04:14:40.572Z,100.00
2023-08-29T04:17:07.280Z,100.00
2023-08-29T04:19:34.747Z,100.00
2023-08-29T04:22:02.001Z,100.00
2023-08-29T04:24:29.697Z,100.00
2023-08-29T04:26:56.415Z,100.00
2023-08-29T04:29:24.085Z,100.00
2023-08-29T04:31:50.732Z,100.00
2023-08-29T04:34:17.357Z,100.00
2023-08-29T04:36:44.017Z,100.00
2023-08-29T04:39:10.621Z,100.00
2023-08-29T04:41:37.288Z,100.00
2023-08-29T04:44:04.039Z,100.00
2023-08-29T04:46:30.629Z,100.00
2023-08-29T04:48:57.576Z,100.00
2023-08-29T04:51:24.253Z,100.00
2023-08-29T04:53:50.980Z,100.00
2023-08-29T04:56:17.661Z,100.00
2023-08-29T04:58:44.272Z,100.00
2023-08-29T05:01:11.537Z,100.00
2023-08-29T05:03:38.460Z,100.00
2023-08-29T05:06:05.759Z,100.00
2023-08-29T05:08:36.085Z,100.00
2023-08-29T05:11:04.488Z,100.00
2023-08-29T05:13:31.143Z,100.00
2023-08-29T05:15:58.601Z,100.00
2023-08-29T05:18:28.949Z,100.00
2023-08-29T05:20:58.233Z,100.00
2023-08-29T05:23:25.070Z,100.00
2023-08-29T05:25:51.678Z,100.00
2023-08-29T05:28:18.278Z,100.00
2023-08-29T05:30:45.359Z,100.00
2023-08-29T05:33:13.296Z,100.00
2023-08-29T05:35:40.012Z,100.00
2023-08-29T05:38:06.896Z,100.00
2023-08-29T05:40:34.615Z,100.00
2023-08-29T05:43:01.436Z,100.00
2023-08-29T05:45:28.035Z,100.00
2023-08-29T05:47:54.672Z,100.00
2023-08-29T05:50:21.265Z,100.00
2023-08-29T05:52:47.934Z,100.00
2023-08-29T05:55:14.584Z,100.00
2023-08-29T05:57:41.197Z,100.00
2023-08-29T06:00:13.742Z,100.00
2023-08-29T06:02:43.158Z,100.00
2023-08-29T06:05:10.581Z,100.00
2023-08-29T06:07:40.031Z,100.00
2023-08-29T06:10:10.229Z,100.00
2023-08-29T06:12:36.896Z,100.00
2023-08-29T06:15:03.709Z,100.00
2023-08-29T06:17:30.259Z,100.00
2023-08-29T06:19:57.256Z,100.00
2023-08-29T06:22:23.889Z,100.00
2023-08-29T06:24:50.820Z,100.00
2023-08-29T06:27:17.409Z,100.00
2023-08-29T06:29:44.058Z,100.00
2023-08-29T06:32:24.145Z,100.00
2023-08-29T06:34:54.671Z,100.00
2023-08-29T06:37:21.355Z,100.00
2023-08-29T06:39:47.992Z,100.00
2023-08-29T06:42:14.573Z,100.00
2023-08-29T06:44:41.251Z,100.00
2023-08-29T06:47:08.042Z,100.00
2023-08-29T06:49:47.814Z,100.00
2023-08-29T06:52:33.326Z,100.00
2023-08-29T06:54:59.825Z,100.00
2023-08-29T06:57:27.463Z,100.00
2023-08-29T06:59:54.083Z,100.00
2023-08-29T07:02:20.694Z,100.00
2023-08-29T07:04:47.743Z,100.00
2023-08-29T07:07:14.378Z,100.00
2023-08-29T07:09:41.121Z,100.00
2023-08-29T07:12:07.973Z,100.00
2023-08-29T07:14:34.628Z,100.00
2023-08-29T07:17:10.203Z,100.00
2023-08-29T07:19:37.646Z,100.00
2023-08-29T07:22:21.216Z,100.00
2023-08-29T07:24:49.876Z,100.00
2023-08-29T07:27:16.500Z,100.00
2023-08-29T07:29:43.205Z,100.00
2023-08-29T07:32:09.782Z,100.00
2023-08-29T07:34:36.455Z,100.00
2023-08-29T07:37:03.909Z,100.00
2023-08-29T07:39:30.480Z,100.00
2023-08-29T07:41:57.075Z,100.00
2023-08-29T07:44:23.721Z,100.00
2023-08-29T07:47:07.814Z,100.00
2023-08-29T07:49:37.159Z,100.00
2023-08-29T07:52:04.376Z,100.00
2023-08-29T07:54:31.228Z,100.00
2023-08-29T07:56:57.841Z,100.00
2023-08-29T07:59:25.632Z,100.00
2023-08-29T08:01:53.276Z,100.00
2023-08-29T08:04:20.169Z,100.00
2023-08-29T08:06:46.852Z,100.00
2023-08-29T08:09:14.111Z,100.00
2023-08-29T08:11:40.796Z,100.00
2023-08-29T08:14:07.376Z,100.00
2023-08-29T08:16:34.098Z,100.00
2023-08-29T08:19:00.716Z,100.00
2023-08-29T08:21:27.395Z,100.00
2023-08-29T08:23:53.972Z,100.00
2023-08-29T08:26:20.645Z,100.00
2023-08-29T08:28:47.426Z,100.00
2023-08-29T08:31:14.149Z,100.00
2023-08-29T08:33:42.287Z,100.00
2023-08-29T08:36:09.120Z,97.86
2023-08-29T08:38:35.795Z,98.33
2023-08-29T08:41:04.661Z,98.67
2023-08-29T08:43:32.763Z,98.48
2023-08-29T08:46:00.240Z,99.75
2023-08-29T08:48:27.858Z,98.34
2023-08-29T08:51:10.702Z,97.74
2023-08-29T08:53:42.374Z,100.00
2023-08-29T08:56:09.690Z,98.51
2023-08-29T08:58:38.373Z,98.13
2023-08-29T09:01:05.530Z,99.20
2023-08-29T09:03:32.399Z,98.45
2023-08-29T09:05:59.079Z,99.76
2023-08-29T09:08:25.977Z,97.10
2023-08-29T09:10:54.349Z,97.23
2023-08-29T09:13:21.698Z,96.10
2023-08-29T09:15:48.644Z,97.17
2023-08-29T09:18:24.693Z,96.47
2023-08-29T09:20:55.617Z,100.00
2023-08-29T09:23:24.094Z,99.11
2023-08-29T09:25:57.979Z,97.48
2023-08-29T09:28:28.976Z,96.41
2023-08-29T09:30:56.781Z,98.30
2023-08-29T09:33:23.613Z,100.00
2023-08-29T09:35:50.873Z,100.00
2023-08-29T09:38:20.446Z,98.58
2023-08-29T09:40:51.594Z,97.28
2023-08-29T09:43:18.756Z,93.42
2023-08-29T09:45:53.580Z,93.58
2023-08-29T09:48:20.778Z,92.54
2023-08-29T09:50:49.198Z,93.31
2023-08-29T09:53:17.585Z,94.86
2023-08-29T09:55:49.606Z,92.68
2023-08-29T09:58:25.154Z,87.46
2023-08-29T10:00:53.019Z,88.02
2023-08-29T10:03:20.914Z,87.26
2023-08-29T10:05:49.978Z,89.59
2023-08-29T10:08:29.433Z,92.63
2023-08-29T10:11:00.713Z,90.41
2023-08-29T10:13:29.170Z,88.01
2023-08-29T10:15:58.283Z,89.13
2023-08-29T10:18:26.919Z,89.23
2023-08-29T10:20:54.960Z,92.61
2023-08-29T10:23:26.803Z,91.29
2023-08-29T10:25:56.871Z,85.48
2023-08-29T10:28:24.050Z,86.24
2023-08-29T10:30:53.571Z,84.89
2023-08-29T10:33:21.499Z,85.47
2023-08-29T10:35:49.920Z,84.79
2023-08-29T10:38:21.324Z,85.78
2023-08-29T10:41:13.378Z,85.20
2023-08-29T10:43:41.544Z,84.01
2023-08-29T10:46:10.820Z,85.46
2023-08-29T10:48:44.832Z,82.65
2023-08-29T10:51:16.131Z,84.61
2023-08-29T10:54:06.566Z,84.45
2023-08-29T10:56:44.526Z,85.38
2023-08-29T10:59:30.852Z,84.01
2023-08-29T11:02:30.520Z,80.48
2023-08-29T11:05:06.488Z,81.61
2023-08-29T11:07:55.441Z,82.77
2023-08-29T11:10:54.541Z,82.90
2023-08-29T11:13:27.575Z,78.68
2023-08-29T11:15:54.286Z,78.97
2023-08-29T11:18:32.034Z,80.51
2023-08-29T11:20:59.046Z,83.51
2023-08-29T11:23:26.186Z,83.05
2023-08-29T11:25:52.888Z,83.51
2023-08-29T11:28:20.218Z,84.63
2023-08-29T11:30:47.909Z,84.24
2023-08-29T11:33:15.696Z,78.79
2023-08-29T11:35:43.683Z,79.20
2023-08-29T11:38:10.767Z,83.82
2023-08-29T11:41:00.959Z,81.86
2023-08-29T11:43:58.868Z,81.91
2023-08-29T11:46:15.929Z,82.00
2023-08-29T11:48:43.070Z,79.66
2023-08-29T11:51:09.883Z,81.93
2023-08-29T11:53:39.128Z,80.33
2023-08-29T11:56:10.926Z,79.83
2023-08-29T11:58:38.978Z,81.66
2023-08-29T12:01:06.446Z,79.13
2023-08-29T12:03:37.031Z,80.27
2023-08-29T12:06:05.941Z,81.16
2023-08-29T12:08:35.740Z,78.46
2023-08-29T12:11:03.603Z,84.08
2023-08-29T12:13:30.389Z,80.78
2023-08-29T12:15:59.300Z,81.77
2023-08-29T12:18:27.434Z,81.22
2023-08-29T12:21:16.635Z,75.13
2023-08-29T12:23:45.507Z,77.32
2023-08-29T12:26:13.195Z,83.49
2023-08-29T12:28:40.429Z,78.54
2023-08-29T12:31:08.698Z,74.80
2023-08-29T12:33:36.710Z,75.26
2023-08-29T12:36:04.432Z,78.00
2023-08-29T12:38:32.567Z,74.50
2023-08-29T12:40:59.560Z,74.31
2023-08-29T12:43:26.426Z,75.71
2023-08-29T12:45:59.982Z,74.12
2023-08-29T12:48:27.975Z,73.56
2023-08-29T12:50:54.770Z,74.75
2023-08-29T12:53:21.560Z,74.60
2023-08-29T12:55:48.534Z,74.79
2023-08-29T12:58:15.242Z,72.28
2023-08-29T13:00:42.977Z,73.01
2023-08-29T13:03:10.480Z,75.99
2023-08-29T13:05:37.619Z,77.97
2023-08-29T13:08:05.580Z,78.38
2023-08-29T13:10:32.513Z,74.22
2023-08-29T13:12:59.182Z,76.17
2023-08-29T13:15:37.025Z,77.28
2023-08-29T13:18:08.083Z,76.72
2023-08-29T13:20:35.356Z,76.23
2023-08-29T13:23:02.123Z,78.37
2023-08-29T13:25:30.044Z,76.02
2023-08-29T13:27:56.938Z,75.25
2023-08-29T13:30:23.862Z,77.83
2023-08-29T13:32:53.233Z,80.11
2023-08-29T13:35:20.452Z,79.57
2023-08-29T13:37:47.441Z,79.92
2023-08-29T13:40:17.972Z,79.73
2023-08-29T13:42:44.743Z,73.95
2023-08-29T13:45:12.389Z,74.87
2023-08-29T13:47:39.679Z,72.57
2023-08-29T13:50:07.099Z,77.84
2023-08-29T13:52:33.858Z,75.51
2023-08-29T13:55:00.818Z,74.78
2023-08-29T13:57:29.733Z,75.28
2023-08-29T13:59:56.284Z,75.97
2023-08-29T14:02:22.977Z,73.41
2023-08-29T14:04:49.775Z,69.24
2023-08-29T14:07:17.770Z,74.28
2023-08-29T14:09:44.577Z,72.32
2023-08-29T14:12:14.231Z,74.91
2023-08-29T14:14:41.201Z,71.00
2023-08-29T14:17:07.915Z,76.70
2023-08-29T14:19:36.603Z,76.10
2023-08-29T14:22:05.095Z,73.65
2023-08-29T14:24:32.299Z,72.78
2023-08-29T14:26:59.105Z,75.25
2023-08-29T14:29:29.928Z,77.05
2023-08-29T14:31:56.805Z,78.22
2023-08-29T14:34:23.434Z,77.85
2023-08-29T14:36:50.108Z,80.14
2023-08-29T14:39:17.702Z,81.37
2023-08-29T14:41:45.033Z,81.01
2023-08-29T14:44:11.976Z,81.66
2023-08-29T14:46:38.797Z,81.18
2023-08-29T14:49:05.564Z,82.97
2023-08-29T14:51:32.316Z,82.98
2023-08-29T14:54:03.573Z,83.17
2023-08-29T14:56:32.005Z,85.51
2023-08-29T14:59:00.696Z,87.13
2023-08-29T15:01:27.979Z,90.08
2023-08-29T15:03:55.132Z,92.79
2023-08-29T15:06:21.947Z,93.97
2023-08-29T15:08:48.644Z,94.22
2023-08-29T15:11:17.595Z,94.30
2023-08-29T15:13:44.265Z,96.39
2023-08-29T15:16:11.113Z,97.58
2023-08-29T15:18:37.866Z,96.69
2023-08-29T15:21:06.853Z,96.48
2023-08-29T15:23:35.183Z,95.90
2023-08-29T15:26:05.477Z,95.62
2023-08-29T15:28:32.194Z,95.12
2023-08-29T15:31:02.055Z,95.41
2023-08-29T15:33:30.083Z,96.05
2023-08-29T15:35:58.135Z,96.37
2023-08-29T15:38:25.538Z,94.25
2023-08-29T15:40:55.935Z,94.62
2023-08-29T15:43:25.758Z,93.66
2023-08-29T15:45:53.086Z,95.20
2023-08-29T15:48:20.089Z,94.60
2023-08-29T15:50:47.599Z,93.24
2023-08-29T15:53:15.251Z,93.95
2023-08-29T15:55:43.026Z,93.15
2023-08-29T15:58:10.064Z,92.84
2023-08-29T16:00:38.255Z,92.92
2023-08-29T16:03:10.658Z,93.00
2023-08-29T16:05:37.650Z,92.14
2023-08-29T16:08:04.982Z,90.58
2023-08-29T16:10:31.929Z,91.24
2023-08-29T16:12:58.575Z,92.33
2023-08-29T16:15:25.234Z,94.21
2023-08-29T16:17:51.941Z,93.46
2023-08-29T16:20:18.708Z,93.44
2023-08-29T16:22:46.325Z,93.17
2023-08-29T16:25:13.149Z,92.61
2023-08-29T16:27:39.988Z,91.47
2023-08-29T16:30:08.515Z,91.87
2023-08-29T16:32:36.448Z,93.55
2023-08-29T16:35:03.429Z,91.40
2023-08-29T16:37:30.480Z,91.46
2023-08-29T16:39:58.887Z,91.25
2023-08-29T16:42:25.698Z,91.86
2023-08-29T16:44:52.675Z,90.82
2023-08-29T16:47:19.470Z,89.98
2023-08-29T16:49:46.118Z,90.83
2023-08-29T16:52:12.883Z,89.73
2023-08-29T16:54:39.505Z,89.61
2023-08-29T16:57:06.520Z,90.53
2023-08-29T16:59:57.547Z,91.01
2023-08-29T17:02:25.546Z,89.24
2023-08-29T17:04:53.635Z,90.44
2023-08-29T17:07:20.581Z,90.52
2023-08-29T17:09:47.208Z,90.51
2023-08-29T17:12:21.647Z,90.88
2023-08-29T17:14:50.185Z,91.63
2023-08-29T17:17:17.827Z,91.17
2023-08-29T17:19:45.163Z,90.07
2023-08-29T17:22:11.965Z,90.13
2023-08-29T17:24:39.883Z,89.75
2023-08-29T17:27:10.523Z,88.91
2023-08-29T17:29:38.162Z,88.95
2023-08-29T17:32:05.453Z,90.22
2023-08-29T17:34:32.311Z,89.96
2023-08-29T17:37:01.903Z,89.47
2023-08-29T17:39:29.352Z,90.68
2023-08-29T17:41:56.473Z,89.80
2023-08-29T17:44:23.513Z,89.69
2023-08-29T17:46:50.451Z,89.80
2023-08-29T17:49:19.324Z,89.27
2023-08-29T17:51:46.311Z,89.83
2023-08-29T17:54:15.788Z,89.57
2023-08-29T17:56:42.287Z,90.75
2023-08-29T17:59:08.948Z,91.47
2023-08-29T18:01:35.657Z,91.18
2023-08-29T18:04:02.271Z,91.64
2023-08-29T18:06:28.838Z,91.25
2023-08-29T18:08:56.399Z,91.71
2023-08-29T18:11:23.093Z,92.59
2023-08-29T18:13:49.895Z,93.45
2023-08-29T18:16:17.022Z,93.99
2023-08-29T18:18:43.785Z,94.71
2023-08-29T18:21:11.918Z,94.71
2023-08-29T18:23:38.804Z,94.57
2023-08-29T18:26:06.977Z,95.37
2023-08-29T18:28:34.679Z,96.33
2023-08-29T18:31:04.074Z,96.70
2023-08-29T18:33:36.729Z,97.43
2023-08-29T18:36:04.022Z,97.48
2023-08-29T18:38:31.352Z,99.27
2023-08-29T18:40:58.885Z,100.00
2023-08-29T18:43:25.687Z,100.00
2023-08-29T18:45:52.384Z,100.00
2023-08-29T18:48:20.376Z,100.00
2023-08-29T18:50:47.272Z,100.00
2023-08-29T18:53:14.109Z,100.00
2023-08-29T18:55:45.068Z,100.00
2023-08-29T18:58:12.616Z,100.00
2023-08-29T19:00:39.407Z,100.00
2023-08-29T19:03:07.321Z,100.00
2023-08-29T19:05:36.464Z,100.00
2023-08-29T19:08:03.522Z,100.00
2023-08-29T19:10:30.806Z,100.00
2023-08-29T19:12:58.030Z,100.00
2023-08-29T19:15:24.995Z,100.00
2023-08-29T19:17:52.091Z,100.00
2023-08-29T19:20:18.865Z,100.00
2023-08-29T19:22:45.621Z,100.00
2023-08-29T19:25:12.962Z,100.00
2023-08-29T19:27:39.574Z,100.00
2023-08-29T19:30:09.100Z,100.00
2023-08-29T19:32:36.309Z,100.00
2023-08-29T19:35:05.230Z,100.00
2023-08-29T19:37:35.371Z,100.00
2023-08-29T19:40:02.116Z,100.00
2023-08-29T19:42:28.641Z,100.00
2023-08-29T19:44:55.295Z,100.00
2023-08-29T19:47:25.785Z,100.00
2023-08-29T19:49:52.436Z,100.00
2023-08-29T19:52:19.156Z,100.00
2023-08-29T19:54:45.909Z,100.00
2023-08-29T19:57:12.680Z,100.00
2023-08-29T19:59:39.363Z,100.00
2023-08-29T20:02:06.139Z,100.00
2023-08-29T20:04:32.865Z,100.00
2023-08-29T20:06:59.459Z,100.00
2023-08-29T20:09:26.448Z,100.00
2023-08-29T20:11:54.841Z,100.00
2023-08-29T20:14:21.496Z,100.00
2023-08-29T20:16:48.191Z,100.00
2023-08-29T20:19:15.365Z,100.00
2023-08-29T20:21:42.197Z,100.00
2023-08-29T20:24:08.850Z,100.00
2023-08-29T20:26:35.448Z,100.00
2023-08-29T20:29:02.894Z,100.00
2023-08-29T20:31:39.089Z,100.00
2023-08-29T20:34:06.456Z,100.00
2023-08-29T20:36:33.099Z,100.00
2023-08-29T20:38:59.797Z,100.00
2023-08-29T20:41:26.560Z,100.00
2023-08-29T20:43:53.173Z,100.00
2023-08-29T20:46:20.384Z,100.00
2023-08-29T20:48:51.882Z,100.00
2023-08-29T20:51:20.634Z,100.00
2023-08-29T20:53:47.268Z,100.00
2023-08-29T20:56:13.909Z,100.00
2023-08-29T20:58:40.717Z,100.00
2023-08-29T21:01:07.468Z,100.00
2023-08-29T21:03:34.372Z,100.00
2023-08-29T21:06:01.157Z,100.00
2023-08-29T21:08:28.347Z,100.00
2023-08-29T21:10:55.415Z,100.00
2023-08-29T21:13:23.376Z,100.00
2023-08-29T21:15:50.218Z,100.00
2023-08-29T21:18:18.486Z,100.00
2023-08-29T21:20:55.693Z,100.00
2023-08-29T21:23:23.171Z,100.00
2023-08-29T21:25:50.979Z,100.00
2023-08-29T21:28:20.306Z,100.00
2023-08-29T21:30:47.586Z,100.00
2023-08-29T21:33:14.313Z,100.00
2023-08-29T21:35:42.278Z,100.00
2023-08-29T21:38:10.224Z,100.00
2023-08-29T21:40:38.252Z,100.00
2023-08-29T21:43:10.567Z,100.00
2023-08-29T21:45:38.650Z,100.00
2023-08-29T21:48:07.407Z,100.00
2023-08-29T21:50:45.565Z,100.00
2023-08-29T21:53:13.175Z,100.00
2023-08-29T21:55:41.276Z,100.00
2023-08-29T21:58:11.750Z,100.00
2023-08-29T22:00:38.892Z,100.00
2023-08-29T22:03:07.061Z,100.00
2023-08-29T22:05:34.111Z,100.00
2023-08-29T22:08:01.649Z,100.00
2023-08-29T22:10:28.295Z,100.00
2023-08-29T22:12:55.024Z,100.00
2023-08-29T22:15:21.714Z,100.00
2023-08-29T22:17:48.439Z,100.00
2023-08-29T22:20:15.770Z,100.00
2023-08-29T22:22:42.882Z,100.00
2023-08-29T22:25:13.398Z,100.00
2023-08-29T22:27:40.020Z,100.00
2023-08-29T22:30:18.937Z,100.00
2023-08-29T22:32:45.728Z,100.00
2023-08-29T22:35:12.530Z,100.00
2023-08-29T22:37:39.176Z,100.00
2023-08-29T22:40:06.734Z,100.00
2023-08-29T22:42:33.415Z,100.00
2023-08-29T22:45:00.046Z,100.00
2023-08-29T22:47:27.014Z,100.00
2023-08-29T22:49:53.805Z,100.00
2023-08-29T22:52:20.412Z,100.00
2023-08-29T22:54:47.095Z,100.00
2023-08-29T22:57:13.830Z,100.00
2023-08-29T22:59:40.520Z,100.00
2023-08-29T23:02:07.133Z,100.00
2023-08-29T23:04:34.890Z,100.00
2023-08-29T23:07:08.683Z,100.00
2023-08-29T23:09:37.123Z,100.00
2023-08-29T23:12:05.172Z,100.00
2023-08-29T23:14:32.102Z,100.00
2023-08-29T23:16:58.695Z,100.00
2023-08-29T23:19:26.102Z,100.00
2023-08-29T23:21:53.882Z,100.00
2023-08-29T23:24:21.362Z,100.00
2023-08-29T23:26:49.117Z,100.00
2023-08-29T23:29:16.147Z,100.00
2023-08-29T23:31:42.940Z,100.00
2023-08-29T23:34:09.553Z,100.00
2023-08-29T23:36:36.170Z,100.00
2023-08-29T23:39:03.915Z,100.00
2023-08-29T23:41:30.574Z,100.00
2023-08-29T23:43:57.224Z,100.00
2023-08-29T23:46:24.011Z,100.00
2023-08-29T23:48:50.643Z,100.00
2023-08-29T23:51:17.560Z,100.00
2023-08-29T23:53:44.253Z,100.00
2023-08-29T23:56:10.893Z,100.00
2023-08-29T23:58:37.514Z,100.00
